sensor_id;sensor_type;location;lat;lon;timestamp;pressure;altitude;pressure_sealevel;temperature;humidity
23016;BME280;11674;52.428;13.584;2023-03-04T00:00:07;101591.41;;;5.05;72.39
23016;BME280;11674;52.428;13.584;2023-03-04T00:05:14;101592.03;;;5.07;72.37
23016;BME280;11674;52.428;13.584;2023-03-04T00:10:21;101590.81;;;5.03;72.56
23016;BME280;11674;52.428;13.584;2023-03-04T00:15:28;101598.31;;;4.96;72.66
23016;BME280;11674;52.428;13.584;2023-03-04T00:20:35;101576.41;;;4.89;72.54
23016;BME280;11674;52.428;13.584;2023-03-04T00:25:44;101568.84;;;4.85;72.64
23016;BME280;11674;52.428;13.584;2023-03-04T00:30:50;101554.50;;;4.83;72.56
23016;BME280;11674;52.428;13.584;2023-03-04T00:35:57;101569.69;;;4.85;72.70
23016;BME280;11674;52.428;13.584;2023-03-04T00:41:04;101561.69;;;4.84;72.73
23016;BME280;11674;52.428;13.584;2023-03-04T00:46:11;101557.84;;;4.85;72.80
23016;BME280;11674;52.428;13.584;2023-03-04T00:51:18;101543.66;;;4.88;72.78
23016;BME280;11674;52.428;13.584;2023-03-04T00:56:25;101539.16;;;4.93;72.77
23016;BME280;11674;52.428;13.584;2023-03-04T01:01:32;101537.03;;;5.07;72.90
23016;BME280;11674;52.428;13.584;2023-03-04T01:06:39;101532.63;;;5.17;72.77
23016;BME280;11674;52.428;13.584;2023-03-04T01:11:51;101529.16;;;5.22;72.77
23016;BME280;11674;52.428;13.584;2023-03-04T01:17:04;101541.34;;;5.26;72.78
23016;BME280;11674;52.428;13.584;2023-03-04T01:22:11;101534.19;;;5.25;72.73
23016;BME280;11674;52.428;13.584;2023-03-04T01:27:18;101523.41;;;5.23;72.67
23016;BME280;11674;52.428;13.584;2023-03-04T01:32:25;101503.22;;;5.18;72.79
23016;BME280;11674;52.428;13.584;2023-03-04T01:37:35;101500.84;;;5.21;72.65
23016;BME280;11674;52.428;13.584;2023-03-04T01:42:42;101499.97;;;5.21;72.63
23016;BME280;11674;52.428;13.584;2023-03-04T01:47:51;101501.66;;;5.22;72.65
23016;BME280;11674;52.428;13.584;2023-03-04T01:52:59;101499.53;;;5.24;72.67
23016;BME280;11674;52.428;13.584;2023-03-04T01:58:11;101504.78;;;5.25;72.66
23016;BME280;11674;52.428;13.584;2023-03-04T02:03:18;101486.72;;;5.29;72.75
23016;BME280;11674;52.428;13.584;2023-03-04T02:08:27;101484.72;;;5.36;72.74
23016;BME280;11674;52.428;13.584;2023-03-04T02:13:33;101483.97;;;5.41;72.88
23016;BME280;11674;52.428;13.584;2023-03-04T02:18:40;101475.00;;;5.45;72.96
23016;BME280;11674;52.428;13.584;2023-03-04T02:24:14;101459.47;;;5.51;72.94
23016;BME280;11674;52.428;13.584;2023-03-04T02:29:23;101467.34;;;5.59;73.04
23016;BME280;11674;52.428;13.584;2023-03-04T02:34:33;101450.34;;;5.62;72.97
23016;BME280;11674;52.428;13.584;2023-03-04T02:39:42;101436.72;;;5.67;73.03
23016;BME280;11674;52.428;13.584;2023-03-04T02:45:01;101433.22;;;5.71;72.98
23016;BME280;11674;52.428;13.584;2023-03-04T02:50:09;101421.84;;;5.79;72.95
23016;BME280;11674;52.428;13.584;2023-03-04T02:55:17;101420.28;;;5.83;73.11
23016;BME280;11674;52.428;13.584;2023-03-04T03:00:25;101409.16;;;5.90;72.92
23016;BME280;11674;52.428;13.584;2023-03-04T03:05:33;101405.41;;;5.96;73.10
23016;BME280;11674;52.428;13.584;2023-03-04T03:10:41;101405.28;;;6.02;73.20
23016;BME280;11674;52.428;13.584;2023-03-04T03:15:49;101408.88;;;6.03;72.98
23016;BME280;11674;52.428;13.584;2023-03-04T03:20:58;101415.53;;;6.18;73.28
23016;BME280;11674;52.428;13.584;2023-03-04T03:26:05;101404.94;;;6.27;73.20
23016;BME280;11674;52.428;13.584;2023-03-04T03:31:15;101407.22;;;6.30;73.14
23016;BME280;11674;52.428;13.584;2023-03-04T03:36:21;101397.19;;;6.24;73.06
23016;BME280;11674;52.428;13.584;2023-03-04T03:41:29;101406.41;;;6.18;73.16
23016;BME280;11674;52.428;13.584;2023-03-04T03:46:35;101387.53;;;6.10;73.13
23016;BME280;11674;52.428;13.584;2023-03-04T03:51:42;101381.53;;;6.13;73.24
23016;BME280;11674;52.428;13.584;2023-03-04T03:56:53;101371.69;;;6.17;73.32
23016;BME280;11674;52.428;13.584;2023-03-04T04:01:59;101363.44;;;6.17;73.36
23016;BME280;11674;52.428;13.584;2023-03-04T04:07:07;101373.97;;;6.20;73.61
23016;BME280;11674;52.428;13.584;2023-03-04T04:12:14;101367.84;;;6.18;73.61
23016;BME280;11674;52.428;13.584;2023-03-04T04:17:24;101362.34;;;6.18;73.73
23016;BME280;11674;52.428;13.584;2023-03-04T04:22:31;101367.28;;;6.16;73.80
23016;BME280;11674;52.428;13.584;2023-03-04T04:27:38;101368.69;;;6.18;73.71
23016;BME280;11674;52.428;13.584;2023-03-04T04:32:45;101362.34;;;6.18;73.82
23016;BME280;11674;52.428;13.584;2023-03-04T04:37:52;101351.44;;;6.23;73.92
23016;BME280;11674;52.428;13.584;2023-03-04T04:42:59;101352.03;;;6.25;73.74
23016;BME280;11674;52.428;13.584;2023-03-04T04:48:06;101343.78;;;6.25;73.96
23016;BME280;11674;52.428;13.584;2023-03-04T04:53:13;101347.69;;;6.29;73.88
23016;BME280;11674;52.428;13.584;2023-03-04T04:58:20;101337.50;;;6.29;73.92
23016;BME280;11674;52.428;13.584;2023-03-04T05:03:27;101338.94;;;6.32;74.05
23016;BME280;11674;52.428;13.584;2023-03-04T05:08:34;101332.31;;;6.33;74.11
23016;BME280;11674;52.428;13.584;2023-03-04T05:13:45;101340.13;;;6.36;73.94
23016;BME280;11674;52.428;13.584;2023-03-04T05:18:52;101328.56;;;6.39;74.04
23016;BME280;11674;52.428;13.584;2023-03-04T05:23:59;101334.25;;;6.49;74.13
23016;BME280;11674;52.428;13.584;2023-03-04T05:29:07;101333.53;;;6.53;74.08
23016;BME280;11674;52.428;13.584;2023-03-04T05:34:13;101334.97;;;6.56;74.10
23016;BME280;11674;52.428;13.584;2023-03-04T05:39:20;101322.31;;;6.60;74.10
23016;BME280;11674;52.428;13.584;2023-03-04T05:44:27;101336.94;;;6.60;74.18
23016;BME280;11674;52.428;13.584;2023-03-04T05:49:34;101321.22;;;6.61;74.09
23016;BME280;11674;52.428;13.584;2023-03-04T05:54:41;101325.78;;;6.67;74.06
23016;BME280;11674;52.428;13.584;2023-03-04T05:59:48;101323.00;;;6.67;74.11
23016;BME280;11674;52.428;13.584;2023-03-04T06:04:55;101327.19;;;6.69;74.00
23016;BME280;11674;52.428;13.584;2023-03-04T06:10:03;101323.91;;;6.72;74.11
23016;BME280;11674;52.428;13.584;2023-03-04T06:15:11;101329.41;;;6.72;73.99
23016;BME280;11674;52.428;13.584;2023-03-04T06:20:17;101333.09;;;6.78;74.06
23016;BME280;11674;52.428;13.584;2023-03-04T06:25:24;101336.19;;;6.81;74.20
23016;BME280;11674;52.428;13.584;2023-03-04T06:30:32;101330.94;;;6.80;74.15
23016;BME280;11674;52.428;13.584;2023-03-04T06:35:39;101338.09;;;6.81;74.23
23016;BME280;11674;52.428;13.584;2023-03-04T06:40:53;101329.34;;;6.84;74.16
23016;BME280;11674;52.428;13.584;2023-03-04T06:46:00;101341.78;;;6.86;74.32
23016;BME280;11674;52.428;13.584;2023-03-04T06:51:09;101337.09;;;6.87;74.35
23016;BME280;11674;52.428;13.584;2023-03-04T06:56:16;101330.53;;;6.88;74.22
23016;BME280;11674;52.428;13.584;2023-03-04T07:01:26;101334.63;;;6.85;74.45
23016;BME280;11674;52.428;13.584;2023-03-04T07:06:32;101328.75;;;6.82;74.40
23016;BME280;11674;52.428;13.584;2023-03-04T07:11:39;101339.19;;;6.80;74.41
23016;BME280;11674;52.428;13.584;2023-03-04T07:16:46;101335.34;;;6.81;74.61
23016;BME280;11674;52.428;13.584;2023-03-04T07:21:53;101337.84;;;6.82;74.68
23016;BME280;11674;52.428;13.584;2023-03-04T07:27:00;101331.16;;;6.78;74.83
23016;BME280;11674;52.428;13.584;2023-03-04T07:32:08;101337.44;;;6.74;74.77
23016;BME280;11674;52.428;13.584;2023-03-04T07:37:15;101339.34;;;6.73;75.05
23016;BME280;11674;52.428;13.584;2023-03-04T07:42:22;101345.16;;;6.72;75.18
23016;BME280;11674;52.428;13.584;2023-03-04T07:47:37;101344.22;;;6.83;75.19
23016;BME280;11674;52.428;13.584;2023-03-04T07:52:46;101352.91;;;6.91;75.27
23016;BME280;11674;52.428;13.584;2023-03-04T07:57:53;101341.34;;;6.94;75.23
23016;BME280;11674;52.428;13.584;2023-03-04T08:03:00;101339.44;;;6.95;75.21
23016;BME280;11674;52.428;13.584;2023-03-04T08:08:07;101345.97;;;6.89;75.32
23016;BME280;11674;52.428;13.584;2023-03-04T08:13:14;101338.19;;;6.86;75.65
23016;BME280;11674;52.428;13.584;2023-03-04T08:18:21;101336.44;;;6.96;75.79
23016;BME280;11674;52.428;13.584;2023-03-04T08:23:28;101333.56;;;7.08;75.86
23016;BME280;11674;52.428;13.584;2023-03-04T08:28:36;101333.13;;;7.16;75.89
23016;BME280;11674;52.428;13.584;2023-03-04T08:33:43;101328.13;;;7.13;75.74
23016;BME280;11674;52.428;13.584;2023-03-04T08:38:49;101338.06;;;7.14;75.76
23016;BME280;11674;52.428;13.584;2023-03-04T08:43:58;101317.22;;;7.23;75.90
23016;BME280;11674;52.428;13.584;2023-03-04T08:49:04;101309.59;;;7.30;75.91
23016;BME280;11674;52.428;13.584;2023-03-04T08:54:11;101298.63;;;7.35;75.83
23016;BME280;11674;52.428;13.584;2023-03-04T08:59:18;101300.94;;;7.43;75.96
23016;BME280;11674;52.428;13.584;2023-03-04T09:04:25;101294.97;;;7.51;76.01
23016;BME280;11674;52.428;13.584;2023-03-04T09:09:32;101298.44;;;7.63;75.97
23016;BME280;11674;52.428;13.584;2023-03-04T09:14:39;101299.44;;;7.78;76.02
23016;BME280;11674;52.428;13.584;2023-03-04T09:19:46;101302.13;;;7.95;75.90
23016;BME280;11674;52.428;13.584;2023-03-04T09:24:53;101307.69;;;8.00;75.74
23016;BME280;11674;52.428;13.584;2023-03-04T09:30:00;101308.88;;;8.09;75.62
23016;BME280;11674;52.428;13.584;2023-03-04T09:35:07;101308.97;;;8.19;75.66
23016;BME280;11674;52.428;13.584;2023-03-04T09:40:45;101302.50;;;8.30;75.50
23016;BME280;11674;52.428;13.584;2023-03-04T09:45:56;101311.41;;;8.37;75.64
23016;BME280;11674;52.428;13.584;2023-03-04T09:51:17;101305.34;;;8.40;75.46
23016;BME280;11674;52.428;13.584;2023-03-04T09:56:25;101308.59;;;8.32;75.47
23016;BME280;11674;52.428;13.584;2023-03-04T10:01:36;101312.97;;;8.28;75.21
23016;BME280;11674;52.428;13.584;2023-03-04T10:06:46;101305.59;;;8.38;75.24
23016;BME280;11674;52.428;13.584;2023-03-04T10:12:02;101301.84;;;8.49;74.98
23016;BME280;11674;52.428;13.584;2023-03-04T10:27:33;101296.84;;;8.83;74.69
23016;BME280;11674;52.428;13.584;2023-03-04T10:32:45;101306.25;;;8.82;74.44
23016;BME280;11674;52.428;13.584;2023-03-04T10:37:52;101300.28;;;9.00;74.67
23016;BME280;11674;52.428;13.584;2023-03-04T10:42:58;101286.03;;;9.18;74.69
23016;BME280;11674;52.428;13.584;2023-03-04T10:48:07;101275.00;;;9.28;74.19
23016;BME280;11674;52.428;13.584;2023-03-04T10:53:30;101286.56;;;9.20;73.79
23016;BME280;11674;52.428;13.584;2023-03-04T10:58:38;101290.97;;;9.16;73.78
23016;BME280;11674;52.428;13.584;2023-03-04T11:03:48;101282.97;;;9.19;73.46
23016;BME280;11674;52.428;13.584;2023-03-04T11:08:58;101288.81;;;9.23;73.51
23016;BME280;11674;52.428;13.584;2023-03-04T11:14:20;101286.06;;;9.33;73.03
23016;BME280;11674;52.428;13.584;2023-03-04T11:19:38;101288.53;;;9.24;72.48
23016;BME280;11674;52.428;13.584;2023-03-04T11:24:57;101293.72;;;9.16;71.98
23016;BME280;11674;52.428;13.584;2023-03-04T11:35:52;101287.06;;;9.07;71.27
23016;BME280;11674;52.428;13.584;2023-03-04T11:41:24;101303.63;;;9.02;70.92
23016;BME280;11674;52.428;13.584;2023-03-04T11:46:50;101300.91;;;9.07;70.43
23016;BME280;11674;52.428;13.584;2023-03-04T12:02:38;101286.66;;;9.35;70.15
23016;BME280;11674;52.428;13.584;2023-03-04T12:19:57;101300.34;;;9.10;69.96
23016;BME280;11674;52.428;13.584;2023-03-04T12:25:08;101297.22;;;8.96;69.64
23016;BME280;11674;52.428;13.584;2023-03-04T12:35:37;101307.34;;;8.81;69.40
23016;BME280;11674;52.428;13.584;2023-03-04T12:46:10;101304.00;;;8.79;68.75
23016;BME280;11674;52.428;13.584;2023-03-04T12:51:31;101298.31;;;8.95;68.66
23016;BME280;11674;52.428;13.584;2023-03-04T12:56:52;101290.13;;;9.10;68.29
23016;BME280;11674;52.428;13.584;2023-03-04T13:07:40;101293.63;;;8.96;67.29
23016;BME280;11674;52.428;13.584;2023-03-04T13:12:50;101298.81;;;8.87;66.29
23016;BME280;11674;52.428;13.584;2023-03-04T13:28:21;101281.22;;;9.08;65.95
23016;BME280;11674;52.428;13.584;2023-03-04T13:38:56;101298.88;;;8.97;65.01
23016;BME280;11674;52.428;13.584;2023-03-04T13:49:35;101318.75;;;8.89;64.14
23016;BME280;11674;52.428;13.584;2023-03-04T13:54:42;101321.22;;;8.86;64.24
23016;BME280;11674;52.428;13.584;2023-03-04T13:59:54;101302.34;;;8.78;63.48
23016;BME280;11674;52.428;13.584;2023-03-04T14:05:10;101305.63;;;8.70;63.39
23016;BME280;11674;52.428;13.584;2023-03-04T14:10:22;101297.00;;;8.66;63.38
23016;BME280;11674;52.428;13.584;2023-03-04T14:15:29;101311.38;;;8.63;63.45
23016;BME280;11674;52.428;13.584;2023-03-04T14:20:39;101300.50;;;8.57;62.82
23016;BME280;11674;52.428;13.584;2023-03-04T14:26:06;101297.19;;;8.55;63.36
23016;BME280;11674;52.428;13.584;2023-03-04T14:31:21;101301.31;;;8.52;63.21
23016;BME280;11674;52.428;13.584;2023-03-04T14:36:33;101294.38;;;8.50;63.05
23016;BME280;11674;52.428;13.584;2023-03-04T14:41:42;101298.22;;;8.44;62.91
23016;BME280;11674;52.428;13.584;2023-03-04T14:47:14;101305.41;;;8.45;63.15
23016;BME280;11674;52.428;13.584;2023-03-04T14:52:46;101297.34;;;8.43;62.76
23016;BME280;11674;52.428;13.584;2023-03-04T15:08:34;101295.81;;;8.26;63.06
23016;BME280;11674;52.428;13.584;2023-03-04T15:13:44;101289.72;;;8.24;63.19
23016;BME280;11674;52.428;13.584;2023-03-04T15:24:00;101287.94;;;8.13;63.35
23016;BME280;11674;52.428;13.584;2023-03-04T15:29:13;101283.56;;;8.17;63.81
23016;BME280;11674;52.428;13.584;2023-03-04T15:34:20;101282.47;;;8.18;64.03
23016;BME280;11674;52.428;13.584;2023-03-04T15:39:27;101285.22;;;8.18;64.11
23016;BME280;11674;52.428;13.584;2023-03-04T15:44:34;101284.91;;;8.14;63.97
23016;BME280;11674;52.428;13.584;2023-03-04T15:49:43;101273.00;;;8.14;63.75
23016;BME280;11674;52.428;13.584;2023-03-04T15:54:50;101276.63;;;8.14;64.04
23016;BME280;11674;52.428;13.584;2023-03-04T15:59:57;101275.28;;;8.17;63.91
23016;BME280;11674;52.428;13.584;2023-03-04T16:05:11;101272.03;;;8.25;64.20
23016;BME280;11674;52.428;13.584;2023-03-04T16:10:26;101272.97;;;8.35;64.37
23016;BME280;11674;52.428;13.584;2023-03-04T16:15:33;101272.41;;;8.33;64.18
23016;BME280;11674;52.428;13.584;2023-03-04T16:20:43;101267.31;;;8.20;63.50
23016;BME280;11674;52.428;13.584;2023-03-04T16:25:54;101284.38;;;8.17;63.89
23016;BME280;11674;52.428;13.584;2023-03-04T16:31:00;101282.09;;;8.09;63.88
23016;BME280;11674;52.428;13.584;2023-03-04T16:36:28;101275.31;;;7.95;63.17
23016;BME280;11674;52.428;13.584;2023-03-04T16:41:35;101268.63;;;7.91;63.40
23016;BME280;11674;52.428;13.584;2023-03-04T16:46:41;101278.88;;;7.91;63.59
23016;BME280;11674;52.428;13.584;2023-03-04T16:51:49;101279.63;;;7.86;63.28
23016;BME280;11674;52.428;13.584;2023-03-04T16:56:57;101287.34;;;7.84;63.41
23016;BME280;11674;52.428;13.584;2023-03-04T17:02:15;101288.19;;;7.85;63.40
23016;BME280;11674;52.428;13.584;2023-03-04T17:07:22;101290.13;;;7.84;63.68
23016;BME280;11674;52.428;13.584;2023-03-04T17:12:29;101293.41;;;7.81;63.77
23016;BME280;11674;52.428;13.584;2023-03-04T17:17:37;101291.47;;;7.82;63.89
23016;BME280;11674;52.428;13.584;2023-03-04T17:22:52;101308.88;;;7.82;63.80
23016;BME280;11674;52.428;13.584;2023-03-04T17:27:59;101310.22;;;7.80;63.84
23016;BME280;11674;52.428;13.584;2023-03-04T17:33:06;101315.44;;;7.76;63.28
23016;BME280;11674;52.428;13.584;2023-03-04T17:38:13;101322.63;;;7.77;63.53
23016;BME280;11674;52.428;13.584;2023-03-04T17:43:20;101322.63;;;7.77;63.66
23016;BME280;11674;52.428;13.584;2023-03-04T17:48:27;101312.94;;;7.75;63.81
23016;BME280;11674;52.428;13.584;2023-03-04T17:53:34;101312.94;;;7.75;63.82
23016;BME280;11674;52.428;13.584;2023-03-04T17:58:41;101318.47;;;7.75;63.85
23016;BME280;11674;52.428;13.584;2023-03-04T18:03:49;101322.56;;;7.72;63.88
23016;BME280;11674;52.428;13.584;2023-03-04T18:08:57;101318.72;;;7.73;63.90
23016;BME280;11674;52.428;13.584;2023-03-04T18:14:04;101315.94;;;7.73;64.06
23016;BME280;11674;52.428;13.584;2023-03-04T18:19:11;101312.03;;;7.69;63.92
23016;BME280;11674;52.428;13.584;2023-03-04T18:24:18;101315.06;;;7.68;64.25
23016;BME280;11674;52.428;13.584;2023-03-04T18:29:25;101308.94;;;7.66;64.29
23016;BME280;11674;52.428;13.584;2023-03-04T18:34:32;101315.00;;;7.63;64.38
23016;BME280;11674;52.428;13.584;2023-03-04T18:39:39;101305.31;;;7.60;64.09
23016;BME280;11674;52.428;13.584;2023-03-04T18:44:46;101296.44;;;7.58;64.03
23016;BME280;11674;52.428;13.584;2023-03-04T18:49:53;101297.78;;;7.56;64.07
23016;BME280;11674;52.428;13.584;2023-03-04T18:55:00;101303.84;;;7.53;63.88
23016;BME280;11674;52.428;13.584;2023-03-04T19:00:09;101299.66;;;7.50;63.89
23016;BME280;11674;52.428;13.584;2023-03-04T19:05:19;101307.09;;;7.50;64.04
23016;BME280;11674;52.428;13.584;2023-03-04T19:10:27;101306.53;;;7.48;64.29
23016;BME280;11674;52.428;13.584;2023-03-04T19:15:41;101301.50;;;7.45;64.19
23016;BME280;11674;52.428;13.584;2023-03-04T19:20:49;101310.56;;;7.40;64.13
23016;BME280;11674;52.428;13.584;2023-03-04T19:25:56;101306.97;;;7.40;64.18
23016;BME280;11674;52.428;13.584;2023-03-04T19:31:04;101301.44;;;7.40;64.12
23016;BME280;11674;52.428;13.584;2023-03-04T19:36:12;101310.81;;;7.39;64.45
23016;BME280;11674;52.428;13.584;2023-03-04T19:41:19;101304.97;;;7.35;64.20
23016;BME280;11674;52.428;13.584;2023-03-04T19:46:26;101308.25;;;7.32;64.17
23016;BME280;11674;52.428;13.584;2023-03-04T19:51:33;101316.81;;;7.31;64.01
23016;BME280;11674;52.428;13.584;2023-03-04T19:56:40;101319.81;;;7.29;64.06
23016;BME280;11674;52.428;13.584;2023-03-04T20:01:50;101319.97;;;7.23;64.11
23016;BME280;11674;52.428;13.584;2023-03-04T20:06:57;101326.69;;;7.10;64.32
23016;BME280;11674;52.428;13.584;2023-03-04T20:12:04;101326.91;;;7.04;64.54
23016;BME280;11674;52.428;13.584;2023-03-04T20:17:14;101333.16;;;6.99;64.70
23016;BME280;11674;52.428;13.584;2023-03-04T20:22:21;101327.63;;;6.99;64.91
23016;BME280;11674;52.428;13.584;2023-03-04T20:27:28;101328.41;;;6.95;64.96
23016;BME280;11674;52.428;13.584;2023-03-04T20:32:35;101327.47;;;6.89;65.06
23016;BME280;11674;52.428;13.584;2023-03-04T20:37:42;101328.09;;;6.91;65.16
23016;BME280;11674;52.428;13.584;2023-03-04T20:42:49;101333.28;;;6.88;65.30
23016;BME280;11674;52.428;13.584;2023-03-04T20:47:56;101338.44;;;6.84;65.33
23016;BME280;11674;52.428;13.584;2023-03-04T20:53:03;101344.94;;;6.78;65.46
23016;BME280;11674;52.428;13.584;2023-03-04T20:58:10;101337.28;;;6.80;65.45
23016;BME280;11674;52.428;13.584;2023-03-04T21:03:17;101343.03;;;6.79;65.63
23016;BME280;11674;52.428;13.584;2023-03-04T21:08:24;101337.44;;;6.74;65.66
23016;BME280;11674;52.428;13.584;2023-03-04T21:13:31;101333.59;;;6.75;65.79
23016;BME280;11674;52.428;13.584;2023-03-04T21:18:38;101325.25;;;6.70;65.72
23016;BME280;11674;52.428;13.584;2023-03-04T21:23:45;101333.44;;;6.65;65.71
23016;BME280;11674;52.428;13.584;2023-03-04T21:28:52;101332.78;;;6.58;65.69
23016;BME280;11674;52.428;13.584;2023-03-04T21:34:00;101328.28;;;6.52;65.60
23016;BME280;11674;52.428;13.584;2023-03-04T21:39:10;101312.22;;;6.49;65.69
23016;BME280;11674;52.428;13.584;2023-03-04T21:44:18;101308.13;;;6.51;65.66
23016;BME280;11674;52.428;13.584;2023-03-04T21:49:26;101303.72;;;6.50;65.58
23016;BME280;11674;52.428;13.584;2023-03-04T21:54:34;101290.25;;;6.54;65.72
23016;BME280;11674;52.428;13.584;2023-03-04T21:59:41;101283.66;;;6.55;65.77
23016;BME280;11674;52.428;13.584;2023-03-04T22:04:48;101287.00;;;6.57;65.74
23016;BME280;11674;52.428;13.584;2023-03-04T22:09:55;101287.00;;;6.57;65.90
23016;BME280;11674;52.428;13.584;2023-03-04T22:15:02;101282.84;;;6.54;65.87
23016;BME280;11674;52.428;13.584;2023-03-04T22:20:09;101274.81;;;6.53;65.92
23016;BME280;11674;52.428;13.584;2023-03-04T22:25:17;101280.91;;;6.55;66.04
23016;BME280;11674;52.428;13.584;2023-03-04T22:30:24;101275.81;;;6.47;66.03
23016;BME280;11674;52.428;13.584;2023-03-04T22:35:31;101273.47;;;6.39;66.24
23016;BME280;11674;52.428;13.584;2023-03-04T22:40:38;101261.78;;;6.32;66.18
23016;BME280;11674;52.428;13.584;2023-03-04T22:45:45;101257.53;;;6.24;66.32
23016;BME280;11674;52.428;13.584;2023-03-04T22:50:52;101247.84;;;6.22;66.34
23016;BME280;11674;52.428;13.584;2023-03-04T22:55:59;101250.03;;;6.20;66.19
23016;BME280;11674;52.428;13.584;2023-03-04T23:01:06;101247.19;;;6.15;66.12
23016;BME280;11674;52.428;13.584;2023-03-04T23:06:22;101242.78;;;6.14;66.18
23016;BME280;11674;52.428;13.584;2023-03-04T23:11:32;101232.09;;;6.17;66.31
23016;BME280;11674;52.428;13.584;2023-03-04T23:16:40;101234.00;;;6.17;66.30
23016;BME280;11674;52.428;13.584;2023-03-04T23:21:47;101224.06;;;6.16;66.43
23016;BME280;11674;52.428;13.584;2023-03-04T23:26:54;101228.31;;;6.23;66.47
23016;BME280;11674;52.428;13.584;2023-03-04T23:32:01;101211.56;;;6.25;66.44
23016;BME280;11674;52.428;13.584;2023-03-04T23:37:08;101213.38;;;6.19;66.36
23016;BME280;11674;52.428;13.584;2023-03-04T23:42:15;101211.97;;;6.17;66.42
23016;BME280;11674;52.428;13.584;2023-03-04T23:47:22;101205.28;;;6.13;66.42
23016;BME280;11674;52.428;13.584;2023-03-04T23:52:29;101200.06;;;6.11;66.48
23016;BME280;11674;52.428;13.584;2023-03-04T23:57:36;101197.63;;;6.15;66.44
